createdAt,value
2022-09-05T00:01:52.963Z,3.97
2022-09-05T00:04:24.471Z,3.15
2022-09-05T00:06:36.981Z,3.25
2022-09-05T00:09:08.599Z,3.60
2022-09-05T00:11:41.324Z,3.35
2022-09-05T00:13:57.158Z,3.20
2022-09-05T00:16:24.435Z,3.10
2022-09-05T00:22:10.853Z,2.03
2022-09-05T00:24:27.648Z,2.90
2022-09-05T00:25:32.303Z,2.33
2022-09-05T00:31:51.144Z,2.70
2022-09-05T00:32:42.231Z,2.63
2022-09-05T00:34:51.131Z,2.45
2022-09-05T00:36:55.315Z,2.72
2022-09-05T00:39:03.345Z,2.08
2022-09-05T00:41:11.337Z,1.95
2022-09-05T00:43:27.862Z,1.77
2022-09-05T00:45:35.218Z,2.22
2022-09-05T00:47:53.863Z,2.40
2022-09-05T00:50:02.088Z,2.20
2022-09-05T00:52:28.369Z,1.38
2022-09-05T00:54:50.560Z,1.60
2022-09-05T00:57:08.982Z,1.50
2022-09-05T00:59:58.620Z,1.58
2022-09-05T01:02:23.266Z,2.03
2022-09-05T01:04:38.521Z,1.80
2022-09-05T01:07:09.471Z,1.52
2022-09-05T01:09:26.371Z,1.23
2022-09-05T01:11:54.592Z,1.95
2022-09-05T01:14:18.330Z,1.40
2022-09-05T01:16:32.690Z,1.17
2022-09-05T01:19:05.922Z,0.88
2022-09-05T01:21:47.514Z,1.42
2022-09-05T01:26:26.830Z,1.00
2022-09-05T01:29:18.739Z,1.50
2022-09-05T01:31:37.066Z,1.13
2022-09-05T01:33:54.311Z,1.10
2022-09-05T01:36:18.738Z,1.00
2022-09-05T01:38:33.197Z,1.45
2022-09-05T01:40:38.872Z,1.30
2022-09-05T01:42:46.318Z,2.05
2022-09-05T01:45:29.695Z,0.98
2022-09-05T01:48:01.080Z,1.02
2022-09-05T01:50:16.196Z,1.05
2022-09-05T01:52:25.101Z,1.05
2022-09-05T01:55:04.408Z,1.20
2022-09-05T01:57:50.532Z,1.00
2022-09-05T02:00:07.040Z,1.80
2022-09-05T02:03:04.390Z,0.88
2022-09-05T02:05:48.297Z,1.02
2022-09-05T02:08:00.071Z,1.02
2022-09-05T02:10:30.913Z,0.88
2022-09-05T02:13:04.409Z,1.00
2022-09-05T02:15:16.193Z,0.98
2022-09-05T02:17:49.796Z,1.10
2022-09-05T02:20:09.271Z,0.98
2022-09-05T02:22:18.877Z,0.70
2022-09-05T02:24:35.911Z,0.93
2022-09-05T02:26:50.130Z,0.63
2022-09-05T02:29:11.652Z,1.33
2022-09-05T02:31:24.898Z,0.75
2022-09-05T02:33:34.385Z,0.98
2022-09-05T02:35:42.994Z,1.00
2022-09-05T02:39:34.877Z,0.95
2022-09-05T02:45:05.938Z,0.80
2022-09-05T02:45:17.868Z,0.93
2022-09-05T02:45:53.805Z,1.13
2022-09-05T02:48:15.286Z,1.10
2022-09-05T02:57:03.254Z,1.33
2022-09-05T02:57:35.416Z,0.77
2022-09-05T02:57:39.220Z,1.65
2022-09-05T02:59:15.790Z,0.95
2022-09-05T03:01:42.274Z,1.08
2022-09-05T03:04:22.440Z,1.00
2022-09-05T03:06:41.240Z,1.00
2022-09-05T03:09:16.575Z,1.10
2022-09-05T03:11:38.715Z,0.93
2022-09-05T03:14:18.662Z,0.75
2022-09-05T03:16:47.193Z,0.88
2022-09-05T03:19:28.427Z,1.67
2022-09-05T03:21:48.106Z,0.60
2022-09-05T03:24:05.567Z,0.82
2022-09-05T03:26:35.747Z,1.42
2022-09-05T03:29:18.854Z,1.70
2022-09-05T03:31:33.285Z,1.38
2022-09-05T03:34:08.445Z,0.80
2022-09-05T03:36:44.877Z,0.55
2022-09-05T03:39:23.804Z,1.17
2022-09-05T03:41:56.752Z,0.80
2022-09-05T03:44:29.362Z,0.70
2022-09-05T03:47:05.025Z,1.02
2022-09-05T03:56:20.322Z,1.30
2022-09-05T03:57:08.253Z,0.77
2022-09-05T03:57:24.065Z,1.60
2022-09-05T03:57:52.383Z,1.50
2022-09-05T04:00:09.339Z,0.73
2022-09-05T04:05:15.224Z,1.27
2022-09-05T04:08:18.259Z,1.05
2022-09-05T04:08:23.603Z,0.95
2022-09-05T04:09:53.966Z,0.88
2022-09-05T04:14:27.180Z,1.17
2022-09-05T04:16:33.777Z,1.27
2022-09-05T04:18:42.986Z,0.73
2022-09-05T04:21:07.809Z,1.00
2022-09-05T04:23:26.017Z,1.05
2022-09-05T04:25:55.850Z,0.70
2022-09-05T04:28:19.228Z,0.70
2022-09-05T04:30:46.329Z,0.93
2022-09-05T04:33:03.384Z,0.88
2022-09-05T04:35:26.040Z,0.93
2022-09-05T04:37:48.504Z,0.90
2022-09-05T04:39:51.918Z,1.00
2022-09-05T04:42:06.473Z,1.25
2022-09-05T04:44:15.758Z,0.50
2022-09-05T04:46:27.226Z,0.90
2022-09-05T04:48:47.442Z,0.70
2022-09-05T04:51:03.325Z,0.60
2022-09-05T04:53:36.914Z,0.77
2022-09-05T04:55:50.812Z,0.60
2022-09-05T04:58:07.321Z,0.50
2022-09-05T05:03:27.514Z,0.93
2022-09-05T05:06:10.846Z,0.82
2022-09-05T05:06:14.284Z,0.75
2022-09-05T05:08:17.178Z,0.90
2022-09-05T05:18:02.406Z,0.60
2022-09-05T05:18:03.083Z,0.40
2022-09-05T05:18:15.778Z,0.75
2022-09-05T05:18:56.534Z,1.13
2022-09-05T05:21:25.095Z,0.82
2022-09-05T05:23:37.324Z,0.65
2022-09-05T05:25:51.469Z,0.90
2022-09-05T05:28:22.588Z,1.02
2022-09-05T05:30:33.383Z,0.60
2022-09-05T05:32:46.020Z,0.63
2022-09-05T05:35:01.734Z,1.20
2022-09-05T05:37:11.397Z,0.60
2022-09-05T05:39:24.062Z,1.00
2022-09-05T05:41:51.425Z,0.82
2022-09-05T05:43:54.702Z,0.73
2022-09-05T05:46:01.487Z,0.65
2022-09-05T05:48:12.549Z,0.75
2022-09-05T05:50:44.410Z,0.70
2022-09-05T05:53:05.662Z,1.25
2022-09-05T05:55:58.463Z,0.60
2022-09-05T05:58:17.560Z,0.90
2022-09-05T06:01:08.604Z,0.98
2022-09-05T06:03:39.855Z,1.02
2022-09-05T06:06:07.434Z,1.00
2022-09-05T06:10:49.936Z,1.17
2022-09-05T06:14:49.961Z,0.73
2022-09-05T06:15:09.409Z,1.10
2022-09-05T06:16:06.655Z,0.57
2022-09-05T06:18:10.617Z,1.23
2022-09-05T06:22:07.380Z,0.70
2022-09-05T06:23:38.742Z,1.05
2022-09-05T06:26:15.659Z,1.08
2022-09-05T06:28:54.480Z,1.30
2022-09-05T06:31:30.308Z,1.15
2022-09-05T06:33:40.300Z,2.17
2022-09-05T06:36:10.558Z,1.30
2022-09-05T06:38:16.302Z,0.90
2022-09-05T06:40:29.169Z,1.35
2022-09-05T06:43:08.158Z,0.80
2022-09-05T06:45:28.461Z,1.10
2022-09-05T06:47:35.865Z,0.93
2022-09-05T06:49:50.856Z,0.60
2022-09-05T06:52:28.718Z,0.70
2022-09-05T06:54:37.821Z,0.60
2022-09-05T06:56:44.191Z,0.57
2022-09-05T06:58:58.918Z,0.90
2022-09-05T07:01:08.651Z,0.60
2022-09-05T07:03:42.327Z,0.77
2022-09-05T07:05:55.873Z,0.63
2022-09-05T07:08:34.156Z,0.70
2022-09-05T07:10:40.082Z,1.10
2022-09-05T07:12:52.211Z,0.40
2022-09-05T07:15:37.316Z,0.70
2022-09-05T07:18:09.088Z,0.43
2022-09-05T07:20:22.484Z,0.50
2022-09-05T07:22:49.268Z,0.80
2022-09-05T07:24:55.596Z,0.70
2022-09-05T07:27:00.993Z,0.55
2022-09-05T07:29:06.689Z,0.57
2022-09-05T07:31:27.366Z,0.60
2022-09-05T07:33:44.373Z,0.50
2022-09-05T07:35:51.011Z,0.30
2022-09-05T07:38:49.011Z,0.50
2022-09-05T07:41:01.677Z,0.52
2022-09-05T07:43:15.046Z,0.80
2022-09-05T07:45:27.143Z,0.50
2022-09-05T07:47:36.871Z,0.32
2022-09-05T07:49:56.587Z,0.70
2022-09-05T07:56:47.608Z,0.80
2022-09-05T07:56:59.244Z,0.77
2022-09-05T07:57:32.427Z,0.80
2022-09-05T07:59:40.893Z,0.85
2022-09-05T08:01:48.518Z,0.98
2022-09-05T08:03:59.161Z,0.70
2022-09-05T08:06:55.440Z,0.40
2022-09-05T08:09:21.250Z,0.57
2022-09-05T08:11:28.439Z,1.10
2022-09-05T08:13:40.688Z,0.73
2022-09-05T08:16:04.283Z,0.85
2022-09-05T08:18:38.078Z,1.10
2022-09-05T08:21:11.528Z,0.50
2022-09-05T08:23:29.605Z,0.17
2022-09-05T08:25:48.372Z,0.28
2022-09-05T08:28:20.867Z,0.20
2022-09-05T08:30:26.475Z,0.50
2022-09-05T08:33:10.368Z,0.45
2022-09-05T08:35:22.674Z,0.10
2022-09-05T08:37:30.981Z,0.57
2022-09-05T08:39:34.865Z,0.15
2022-09-05T08:42:03.382Z,0.20
2022-09-05T08:46:44.899Z,0.55
2022-09-05T08:47:03.650Z,0.38
2022-09-05T08:49:38.602Z,0.22
2022-09-05T08:51:56.456Z,0.50
2022-09-05T08:54:26.961Z,0.30
2022-09-05T08:56:52.708Z,0.65
2022-09-05T08:59:32.514Z,0.57
2022-09-05T09:02:45.585Z,0.40
2022-09-05T09:05:01.171Z,0.60
2022-09-05T09:07:51.166Z,0.40
2022-09-05T09:10:05.577Z,0.52
2022-09-05T09:12:29.717Z,0.88
2022-09-05T09:14:41.483Z,0.50
2022-09-05T09:17:06.886Z,0.30
2022-09-05T09:19:29.415Z,0.20
2022-09-05T09:21:41.488Z,0.60
2022-09-05T09:23:50.734Z,0.50
2022-09-05T09:26:19.189Z,0.68
2022-09-05T09:28:52.930Z,0.82
2022-09-05T09:31:22.349Z,0.35
2022-09-05T09:33:53.876Z,0.47
2022-09-05T09:36:08.177Z,0.90
2022-09-05T09:38:40.619Z,0.70
2022-09-05T09:41:31.176Z,0.57
2022-09-05T09:44:05.971Z,0.70
2022-09-05T09:46:20.759Z,0.90
2022-09-05T09:48:53.365Z,0.55
2022-09-05T09:50:58.970Z,0.82
2022-09-05T09:53:37.216Z,0.80
2022-09-05T09:56:06.987Z,0.77
2022-09-05T09:58:30.838Z,0.70
2022-09-05T10:01:01.345Z,0.77
2022-09-05T10:05:28.860Z,0.55
2022-09-05T10:10:46.002Z,0.65
2022-09-05T10:10:49.405Z,0.90
2022-09-05T10:12:01.303Z,0.68
2022-09-05T10:14:47.560Z,0.80
2022-09-05T10:17:01.611Z,0.60
2022-09-05T10:25:19.384Z,0.73
2022-09-05T10:27:50.181Z,1.10
2022-09-05T10:30:31.963Z,1.20
2022-09-05T10:35:21.320Z,1.08
2022-09-05T10:36:00.802Z,1.23
2022-09-05T10:38:11.522Z,1.20
2022-09-05T10:40:19.874Z,1.70
2022-09-05T10:42:25.523Z,1.55
2022-09-05T10:44:42.577Z,2.47
2022-09-05T10:47:06.360Z,1.48
2022-09-05T10:49:14.020Z,1.88
2022-09-05T10:51:45.741Z,1.67
2022-09-05T10:54:25.497Z,2.13
2022-09-05T10:56:39.927Z,1.50
2022-09-05T11:02:18.722Z,2.00
2022-09-05T11:02:23.409Z,1.30
2022-09-05T11:04:37.116Z,0.90
2022-09-05T11:06:56.200Z,1.05
2022-09-05T11:09:16.409Z,1.50
2022-09-05T11:11:28.265Z,1.17
2022-09-05T11:13:51.806Z,0.80
2022-09-05T11:16:13.467Z,1.10
2022-09-05T11:20:45.020Z,1.20
2022-09-05T11:22:53.272Z,1.38
2022-09-05T11:25:02.796Z,0.90
2022-09-05T11:27:26.346Z,1.30
2022-09-05T11:29:35.280Z,1.20
2022-09-05T11:34:44.201Z,1.20
2022-09-05T11:40:05.888Z,0.85
2022-09-05T11:40:09.970Z,0.90
2022-09-05T11:40:35.188Z,1.20
2022-09-05T11:43:15.292Z,1.00
2022-09-05T11:45:33.215Z,0.70
2022-09-05T11:47:44.734Z,0.57
2022-09-05T11:50:31.577Z,0.57
2022-09-05T11:52:43.726Z,0.47
2022-09-05T11:55:05.055Z,0.47
2022-09-05T11:57:33.091Z,0.45
2022-09-05T12:00:28.211Z,0.47
2022-09-05T12:02:52.937Z,0.25
2022-09-05T12:05:49.606Z,0.30
2022-09-05T12:08:09.228Z,0.47
2022-09-05T12:10:46.675Z,0.20
2022-09-05T12:13:07.878Z,0.50
2022-09-05T12:15:34.341Z,0.60
2022-09-05T12:18:19.459Z,0.40
2022-09-05T12:20:36.027Z,0.50
2022-09-05T12:23:01.941Z,0.40
2022-09-05T12:25:24.819Z,0.40
2022-09-05T12:28:03.871Z,0.30
2022-09-05T12:30:22.763Z,0.77
2022-09-05T12:36:01.456Z,0.35
2022-09-05T12:40:30.215Z,0.20
2022-09-05T12:40:58.239Z,0.50
2022-09-05T12:41:39.049Z,0.30
2022-09-05T12:44:39.325Z,0.40
2022-09-05T12:46:33.566Z,0.30
2022-09-05T12:49:07.217Z,0.40
2022-09-05T12:51:45.020Z,0.30
2022-09-05T12:53:53.301Z,0.30
2022-09-05T12:59:22.646Z,0.40
2022-09-05T13:03:01.185Z,0.45
2022-09-05T13:03:03.725Z,0.30
2022-09-05T13:04:16.925Z,0.70
2022-09-05T13:06:47.137Z,0.80
2022-09-05T13:08:59.382Z,0.63
2022-09-05T13:14:50.629Z,0.60
2022-09-05T13:14:53.612Z,0.57
2022-09-05T13:16:10.769Z,0.77
2022-09-05T13:21:08.631Z,0.70
2022-09-05T13:23:31.377Z,0.50
2022-09-05T13:25:37.246Z,0.63
2022-09-05T13:27:49.727Z,0.50
2022-09-05T13:32:16.243Z,0.90
2022-09-05T13:37:59.735Z,0.82
2022-09-05T13:38:14.752Z,1.08
2022-09-05T13:38:30.437Z,0.82
2022-09-05T13:40:19.774Z,0.80
2022-09-05T13:42:25.782Z,1.15
2022-09-05T13:44:30.354Z,0.82
2022-09-05T13:46:45.692Z,0.93
2022-09-05T13:51:47.072Z,0.80
2022-09-05T13:53:58.549Z,1.00
2022-09-05T13:56:23.161Z,0.90
2022-09-05T13:58:40.113Z,0.85
2022-09-05T14:00:43.353Z,1.52
2022-09-05T14:03:40.809Z,0.88
2022-09-05T14:06:09.980Z,0.90
2022-09-05T14:09:35.168Z,1.05
2022-09-05T14:11:48.359Z,1.70
2022-09-05T14:14:04.815Z,0.90
2022-09-05T14:16:24.495Z,0.75
2022-09-05T14:19:01.385Z,0.90
2022-09-05T14:21:16.711Z,0.80
2022-09-05T14:23:25.201Z,0.70
2022-09-05T14:25:32.958Z,0.70
2022-09-05T14:27:39.567Z,0.90
2022-09-05T14:29:52.347Z,1.30
2022-09-05T14:37:34.721Z,0.98
2022-09-05T14:37:44.166Z,1.20
2022-09-05T14:38:04.220Z,1.02
2022-09-05T14:40:29.613Z,1.20
2022-09-05T14:42:45.495Z,0.77
2022-09-05T14:45:13.135Z,1.80
2022-09-05T14:47:47.519Z,1.20
2022-09-05T14:49:51.305Z,1.13
2022-09-05T14:51:55.452Z,1.17
2022-09-05T14:54:01.922Z,1.40
2022-09-05T14:59:37.750Z,0.93
2022-09-05T15:02:53.744Z,1.23
2022-09-05T15:03:00.657Z,0.77
2022-09-05T15:06:13.874Z,1.05
2022-09-05T15:10:52.503Z,1.33
2022-09-05T15:12:21.029Z,1.25
2022-09-05T15:13:20.672Z,1.40
2022-09-05T15:15:57.548Z,0.98
2022-09-05T15:18:17.670Z,1.20
2022-09-05T15:20:29.723Z,1.00
2022-09-05T15:22:35.445Z,0.93
2022-09-05T15:24:38.465Z,1.60
2022-09-05T15:26:56.918Z,1.33
2022-09-05T15:29:13.688Z,1.38
2022-09-05T15:31:20.336Z,1.50
2022-09-05T15:33:26.343Z,1.17
2022-09-05T15:35:37.995Z,1.23
2022-09-05T15:37:42.937Z,1.38
2022-09-05T15:39:45.692Z,1.50
2022-09-05T15:41:48.732Z,3.25
2022-09-05T15:44:01.354Z,2.40
2022-09-05T15:46:05.712Z,3.45
2022-09-05T15:48:22.765Z,3.17
2022-09-05T15:50:26.823Z,2.47
2022-09-05T15:52:47.489Z,9.00
2022-09-05T15:55:01.428Z,4.60
2022-09-05T15:57:09.141Z,1.50
2022-09-05T15:59:24.575Z,2.40
2022-09-05T16:01:58.313Z,1.30
2022-09-05T16:08:34.166Z,1.30
2022-09-05T16:10:29.838Z,1.45
2022-09-05T16:10:36.592Z,1.05
2022-09-05T16:13:53.900Z,1.33
2022-09-05T16:20:15.020Z,1.63
2022-09-05T16:23:29.887Z,1.83
2022-09-05T16:23:30.680Z,2.15
2022-09-05T16:23:41.560Z,2.03
2022-09-05T16:25:57.875Z,2.47
2022-09-05T16:28:16.173Z,3.28
2022-09-05T16:30:25.009Z,2.85
2022-09-05T16:32:33.179Z,2.75
2022-09-05T16:35:10.576Z,2.58
2022-09-05T16:37:24.204Z,2.28
2022-09-05T16:39:32.525Z,2.15
2022-09-05T16:41:57.181Z,2.03
2022-09-05T16:44:16.381Z,1.48
2022-09-05T16:46:41.971Z,1.73
2022-09-05T16:48:48.062Z,1.88
2022-09-05T16:51:34.731Z,1.63
2022-09-05T16:53:58.589Z,1.40
2022-09-05T16:56:13.820Z,1.13
2022-09-05T16:58:21.266Z,1.30
2022-09-05T17:00:24.097Z,1.23
2022-09-05T17:02:34.407Z,1.33
2022-09-05T17:05:04.447Z,1.25
2022-09-05T17:07:20.085Z,0.98
2022-09-05T17:09:26.273Z,1.58
2022-09-05T17:11:33.661Z,0.82
2022-09-05T17:15:52.648Z,1.45
2022-09-05T17:18:20.044Z,0.90
2022-09-05T17:20:30.866Z,1.00
2022-09-05T17:27:29.776Z,1.60
2022-09-05T17:29:29.820Z,1.45
2022-09-05T17:29:49.898Z,2.10
2022-09-05T17:33:17.417Z,1.60
2022-09-05T17:35:32.636Z,1.40
2022-09-05T17:37:44.271Z,1.58
2022-09-05T17:40:18.029Z,1.75
2022-09-05T17:42:36.436Z,1.60
2022-09-05T17:44:54.411Z,1.27
2022-09-05T17:47:42.679Z,1.55
2022-09-05T17:49:48.012Z,1.33
2022-09-05T17:51:53.634Z,1.15
2022-09-05T17:54:16.190Z,1.40
2022-09-05T17:56:44.818Z,1.10
2022-09-05T17:59:18.557Z,1.05
2022-09-05T18:01:32.549Z,1.42
2022-09-05T18:03:38.263Z,1.10
2022-09-05T18:05:57.067Z,1.10
2022-09-05T18:08:00.428Z,1.40
2022-09-05T18:10:14.579Z,0.80
2022-09-05T18:13:11.680Z,1.48
2022-09-05T18:14:53.968Z,1.17
2022-09-05T18:17:47.873Z,1.60
2022-09-05T18:19:57.723Z,1.30
2022-09-05T18:22:06.370Z,1.63
2022-09-05T18:24:15.610Z,1.92
2022-09-05T18:26:22.458Z,1.50
2022-09-05T18:28:53.340Z,1.20
2022-09-05T18:30:56.276Z,1.23
2022-09-05T18:33:56.046Z,1.27
2022-09-05T18:35:37.223Z,1.85
2022-09-05T18:37:42.128Z,1.85
2022-09-05T18:39:45.128Z,1.48
2022-09-05T18:41:49.403Z,2.30
2022-09-05T18:44:13.826Z,1.90
2022-09-05T18:46:28.910Z,2.10
2022-09-05T18:49:48.920Z,3.00
2022-09-05T18:51:16.361Z,1.60
2022-09-05T18:53:27.380Z,1.67
2022-09-05T18:56:12.181Z,1.65
2022-09-05T18:58:02.587Z,1.60
2022-09-05T19:00:10.568Z,1.90
2022-09-05T19:02:44.247Z,1.63
2022-09-05T19:04:56.102Z,1.65
2022-09-05T19:07:07.893Z,0.93
2022-09-05T19:09:15.218Z,1.55
2022-09-05T19:11:28.730Z,1.27
2022-09-05T19:13:34.589Z,1.58
2022-09-05T19:16:18.463Z,1.13
2022-09-05T19:18:36.924Z,1.20
2022-09-05T19:21:12.061Z,1.27
2022-09-05T19:23:23.213Z,1.40
2022-09-05T19:25:33.227Z,1.63
2022-09-05T19:35:15.464Z,1.33
2022-09-05T19:36:44.166Z,1.40
2022-09-05T19:36:57.589Z,1.90
2022-09-05T19:37:08.887Z,1.83
2022-09-05T19:37:26.270Z,1.25
2022-09-05T19:43:14.246Z,2.72
2022-09-05T19:47:29.755Z,4.20
2022-09-05T19:47:48.705Z,4.07
2022-09-05T19:47:48.901Z,2.13
2022-09-05T19:49:26.561Z,3.50
2022-09-05T19:51:29.546Z,3.55
2022-09-05T19:53:35.279Z,2.33
2022-09-05T19:55:40.535Z,2.30
2022-09-05T19:57:49.538Z,2.70
2022-09-05T20:00:02.641Z,1.52
2022-09-05T20:02:26.210Z,1.90
2022-09-05T20:04:38.965Z,1.80
2022-09-05T20:06:47.294Z,1.90
2022-09-05T20:08:50.071Z,2.08
2022-09-05T20:11:01.314Z,2.10
2022-09-05T20:13:24.658Z,2.08
2022-09-05T20:15:36.236Z,1.70
2022-09-05T20:17:43.216Z,1.58
2022-09-05T20:19:46.210Z,1.90
2022-09-05T20:21:50.405Z,1.40
2022-09-05T20:23:56.932Z,1.73
2022-09-05T20:26:03.324Z,2.35
2022-09-05T20:28:27.452Z,2.10
2022-09-05T20:30:34.965Z,2.15
2022-09-05T20:32:48.671Z,2.72
2022-09-05T20:37:47.508Z,5.53
2022-09-05T20:43:08.561Z,5.05
2022-09-05T20:43:22.840Z,6.00
2022-09-05T20:43:28.126Z,6.65
2022-09-05T20:44:48.630Z,5.28
2022-09-05T20:54:05.271Z,5.43
2022-09-05T20:54:06.843Z,5.85
2022-09-05T20:54:20.539Z,5.50
2022-09-05T20:54:34.659Z,5.28
2022-09-05T20:56:43.054Z,4.85
2022-09-05T20:58:50.326Z,4.97
2022-09-05T21:01:21.660Z,5.75
2022-09-05T21:03:27.646Z,6.05
2022-09-05T21:05:32.933Z,5.82
2022-09-05T21:07:38.941Z,5.25
2022-09-05T21:09:59.914Z,5.55
2022-09-05T21:12:12.618Z,4.60
2022-09-05T21:14:30.489Z,4.47
2022-09-05T21:16:41.944Z,4.32
2022-09-05T21:18:45.057Z,4.68
2022-09-05T21:21:29.025Z,4.00
2022-09-05T21:23:37.296Z,4.00
2022-09-05T21:25:53.486Z,4.22
2022-09-05T21:28:02.687Z,3.67
2022-09-05T21:30:30.602Z,3.55
2022-09-05T21:32:41.326Z,3.22
2022-09-05T21:34:49.670Z,3.25
2022-09-05T21:37:04.592Z,3.90
2022-09-05T21:39:10.716Z,3.63
2022-09-05T21:41:16.567Z,3.85
2022-09-05T21:47:39.994Z,4.20
2022-09-05T21:47:48.871Z,3.30
2022-09-05T21:48:06.694Z,3.35
2022-09-05T21:50:09.808Z,3.17
2022-09-05T21:52:22.301Z,2.90
2022-09-05T21:59:00.479Z,3.55
2022-09-05T21:59:18.252Z,3.30
2022-09-05T21:59:41.400Z,4.05
2022-09-05T22:01:52.264Z,3.97
2022-09-05T22:03:58.559Z,4.10
2022-09-05T22:06:04.177Z,4.78
2022-09-05T22:08:13.389Z,4.13
2022-09-05T22:10:15.996Z,4.30
2022-09-05T22:12:30.374Z,4.82
2022-09-05T22:14:33.855Z,4.45
2022-09-05T22:16:44.907Z,5.30
2022-09-05T22:18:51.236Z,4.85
2022-09-05T22:21:29.562Z,5.35
2022-09-05T22:23:16.733Z,5.35
2022-09-05T22:25:31.003Z,4.70
2022-09-05T22:27:38.399Z,3.58
2022-09-05T22:29:41.646Z,3.90
2022-09-05T22:31:44.683Z,4.70
2022-09-05T22:33:50.968Z,4.78
2022-09-05T22:35:54.819Z,6.45
2022-09-05T22:38:10.563Z,5.97
2022-09-05T22:40:14.664Z,4.80
2022-09-05T22:42:17.369Z,5.05
2022-09-05T22:44:20.051Z,5.07
2022-09-05T22:46:23.263Z,5.00
2022-09-05T22:48:25.950Z,4.07
2022-09-05T22:50:28.712Z,3.55
2022-09-05T22:52:31.405Z,4.07
2022-09-05T22:54:37.309Z,4.20
2022-09-05T22:56:40.007Z,3.80
2022-09-05T22:58:45.541Z,4.43
2022-09-05T23:00:48.237Z,4.03
2022-09-05T23:03:00.070Z,2.80
2022-09-05T23:07:05.983Z,3.03
2022-09-05T23:09:10.010Z,3.15
2022-09-05T23:11:14.949Z,2.90
2022-09-05T23:13:17.535Z,3.72
2022-09-05T23:15:20.259Z,2.88
2022-09-05T23:17:22.935Z,3.13
2022-09-05T23:19:25.538Z,3.22
2022-09-05T23:21:28.187Z,3.55
2022-09-05T23:23:31.118Z,3.72
2022-09-05T23:25:35.382Z,3.67
2022-09-05T23:27:38.758Z,3.35
2022-09-05T23:29:41.341Z,2.85
2022-09-05T23:31:44.076Z,3.10
2022-09-05T23:33:46.724Z,3.75
2022-09-05T23:35:49.548Z,2.92
2022-09-05T23:37:52.095Z,2.83
2022-09-05T23:39:54.796Z,2.50
2022-09-05T23:41:57.411Z,3.30
2022-09-05T23:44:00.975Z,3.42
2022-09-05T23:46:04.937Z,3.72
2022-09-05T23:48:07.694Z,3.05
2022-09-05T23:50:12.101Z,3.63
2022-09-05T23:52:14.760Z,3.42
2022-09-05T23:54:17.579Z,3.53
2022-09-05T23:56:20.160Z,3.20
2022-09-05T23:58:23.058Z,2.90
